createdAt,value
2018-04-06T00:00:08.927Z,4.50
2018-04-06T00:02:36.537Z,4.50
2018-04-06T00:05:04.135Z,4.40
2018-04-06T00:07:31.782Z,4.50
2018-04-06T00:09:59.330Z,4.50
2018-04-06T00:12:26.952Z,4.50
2018-04-06T00:14:55.358Z,4.60
2018-04-06T00:17:22.973Z,4.50
2018-04-06T00:19:50.569Z,4.50
2018-04-06T00:22:18.934Z,4.50
2018-04-06T00:24:46.560Z,4.50
2018-04-06T00:27:14.122Z,4.50
2018-04-06T00:29:41.717Z,4.40
2018-04-06T00:32:10.067Z,4.30
2018-04-06T00:34:39.157Z,4.20
2018-04-06T00:37:06.797Z,4.20
2018-04-06T00:39:34.445Z,4.20
2018-04-06T00:42:02.058Z,4.10
2018-04-06T00:44:29.627Z,4.10
2018-04-06T00:46:57.990Z,3.90
2018-04-06T00:49:25.561Z,3.80
2018-04-06T00:51:53.910Z,3.70
2018-04-06T00:54:21.662Z,3.60
2018-04-06T00:56:49.427Z,3.60
2018-04-06T00:59:17.002Z,3.60
2018-04-06T01:01:44.650Z,3.60
2018-04-06T01:04:12.240Z,3.60
2018-04-06T01:06:44.663Z,3.60
2018-04-06T01:09:12.283Z,3.50
2018-04-06T01:11:39.915Z,3.50
2018-04-06T01:14:07.548Z,3.50
2018-04-06T01:16:35.163Z,3.50
2018-04-06T01:19:02.761Z,3.40
2018-04-06T01:21:30.349Z,3.30
2018-04-06T01:23:57.971Z,3.30
2018-04-06T01:26:25.593Z,3.30
2018-04-06T01:28:53.208Z,3.30
2018-04-06T01:31:20.783Z,3.20
2018-04-06T01:33:48.382Z,3.20
2018-04-06T01:36:15.979Z,3.20
2018-04-06T01:38:43.567Z,3.10
2018-04-06T01:41:11.207Z,3.10
2018-04-06T01:43:38.796Z,3.10
2018-04-06T01:46:20.043Z,3.10
2018-04-06T01:48:47.615Z,3.20
2018-04-06T01:51:15.205Z,3.20
2018-04-06T01:53:42.839Z,3.20
2018-04-06T01:56:10.442Z,3.20
2018-04-06T01:58:38.020Z,3.20
2018-04-06T02:01:06.592Z,3.10
2018-04-06T02:03:34.978Z,3.10
2018-04-06T02:06:02.595Z,3.10
2018-04-06T02:08:30.183Z,3.00
2018-04-06T02:10:57.751Z,3.00
2018-04-06T02:13:25.819Z,3.00
2018-04-06T02:15:53.460Z,2.90
2018-04-06T02:18:21.052Z,2.90
2018-04-06T02:20:49.741Z,2.80
2018-04-06T02:23:17.328Z,2.80
2018-04-06T02:25:45.719Z,2.70
2018-04-06T02:28:14.275Z,2.70
2018-04-06T02:30:41.866Z,2.70
2018-04-06T02:33:09.478Z,2.70
2018-04-06T02:35:37.099Z,2.70
2018-04-06T02:38:04.677Z,2.70
2018-04-06T02:40:32.306Z,2.60
2018-04-06T02:42:59.900Z,2.60
2018-04-06T02:45:27.492Z,2.50
2018-04-06T02:47:55.092Z,2.50
2018-04-06T02:50:22.665Z,2.50
2018-04-06T02:52:50.248Z,2.50
2018-04-06T02:55:17.828Z,2.40
2018-04-06T02:57:46.212Z,2.50
2018-04-06T03:00:13.867Z,2.50
2018-04-06T03:02:41.498Z,2.60
2018-04-06T03:05:09.084Z,2.60
2018-04-06T03:07:38.176Z,2.50
2018-04-06T03:10:05.784Z,2.50
2018-04-06T03:12:34.177Z,2.30
2018-04-06T03:15:01.788Z,2.30
2018-04-06T03:17:29.406Z,2.30
2018-04-06T03:20:01.538Z,2.20
2018-04-06T03:22:29.936Z,2.00
2018-04-06T03:24:57.512Z,2.00
2018-04-06T03:27:25.114Z,2.00
2018-04-06T03:29:52.707Z,2.00
2018-04-06T03:32:21.042Z,2.00
2018-04-06T03:34:48.667Z,2.00
2018-04-06T03:37:17.328Z,2.00
2018-04-06T03:39:45.696Z,1.90
2018-04-06T03:42:14.092Z,1.80
2018-04-06T03:44:41.686Z,1.80
2018-04-06T03:47:09.325Z,1.80
2018-04-06T03:49:36.935Z,1.80
2018-04-06T03:52:04.545Z,1.80
2018-04-06T03:54:32.102Z,1.80
2018-04-06T03:56:59.716Z,1.70
2018-04-06T03:59:27.278Z,1.70
2018-04-06T04:01:54.902Z,1.80
2018-04-06T04:04:22.530Z,1.70
2018-04-06T04:06:50.154Z,1.70
2018-04-06T04:09:17.782Z,1.70
2018-04-06T04:11:46.212Z,1.60
2018-04-06T04:14:13.888Z,1.60
2018-04-06T04:16:41.500Z,1.50
2018-04-06T04:19:09.111Z,1.50
2018-04-06T04:21:36.856Z,1.50
2018-04-06T04:24:04.434Z,1.50
2018-04-06T04:26:32.113Z,1.50
2018-04-06T04:28:59.714Z,1.50
2018-04-06T04:31:27.338Z,1.50
2018-04-06T04:33:54.950Z,1.50
2018-04-06T04:36:22.506Z,1.40
2018-04-06T04:38:50.116Z,1.40
2018-04-06T04:41:17.904Z,1.50
2018-04-06T04:43:45.520Z,1.40
2018-04-06T04:46:19.972Z,1.40
2018-04-06T04:48:48.358Z,1.40
2018-04-06T04:51:16.704Z,1.40
2018-04-06T04:53:44.326Z,1.40
2018-04-06T04:56:12.707Z,1.50
2018-04-06T04:58:43.686Z,1.50
2018-04-06T05:01:14.397Z,1.50
2018-04-06T05:03:42.804Z,1.50
2018-04-06T05:06:10.458Z,1.60
2018-04-06T05:08:47.383Z,1.70
2018-04-06T05:11:15.063Z,1.70
2018-04-06T05:13:42.667Z,1.70
2018-04-06T05:16:11.000Z,1.90
2018-04-06T05:18:38.592Z,1.90
2018-04-06T05:21:06.992Z,2.10
2018-04-06T05:23:34.614Z,2.10
2018-04-06T05:26:02.247Z,2.20
2018-04-06T05:28:29.964Z,2.20
2018-04-06T05:30:57.648Z,2.20
2018-04-06T05:33:25.230Z,2.30
2018-04-06T05:35:57.508Z,2.40
2018-04-06T05:38:25.147Z,2.50
2018-04-06T05:40:58.830Z,2.60
2018-04-06T05:43:26.556Z,2.80
2018-04-06T05:46:00.845Z,2.90
2018-04-06T05:48:35.759Z,2.90
2018-04-06T05:51:03.302Z,3.10
2018-04-06T05:53:30.869Z,3.20
2018-04-06T05:55:58.482Z,3.40
2018-04-06T05:58:26.892Z,4.10
2018-04-06T06:00:54.479Z,4.10
2018-04-06T06:03:22.914Z,4.80
2018-04-06T06:05:51.254Z,5.50
2018-04-06T06:08:18.882Z,5.50
2018-04-06T06:10:46.493Z,5.60
2018-04-06T06:13:14.115Z,5.70
2018-04-06T06:15:41.713Z,5.90
2018-04-06T06:18:10.097Z,6.50
2018-04-06T06:20:37.714Z,6.50
2018-04-06T06:23:05.316Z,6.70
2018-04-06T06:25:32.885Z,6.90
2018-04-06T06:28:00.510Z,7.10
2018-04-06T06:30:28.695Z,7.30
2018-04-06T06:32:58.325Z,7.30
2018-04-06T06:35:25.937Z,7.20
2018-04-06T06:37:53.602Z,7.40
2018-04-06T06:40:21.197Z,7.40
2018-04-06T06:42:48.829Z,7.70
2018-04-06T06:45:16.492Z,7.70
2018-04-06T06:47:44.076Z,7.80
2018-04-06T06:50:11.671Z,7.90
2018-04-06T06:52:40.125Z,7.60
2018-04-06T06:55:08.481Z,7.70
2018-04-06T06:57:36.085Z,7.70
2018-04-06T07:00:04.455Z,7.40
2018-04-06T07:02:32.811Z,7.30
2018-04-06T07:05:00.443Z,7.30
2018-04-06T07:07:28.046Z,7.30
2018-04-06T07:09:55.663Z,7.30
2018-04-06T07:12:23.321Z,7.30
2018-04-06T07:14:50.937Z,7.10
2018-04-06T07:17:18.596Z,7.40
2018-04-06T07:19:46.195Z,7.40
2018-04-06T07:22:14.651Z,7.30
2018-04-06T07:24:42.445Z,7.40
2018-04-06T07:27:10.096Z,7.30
2018-04-06T07:29:37.772Z,7.70
2018-04-06T07:32:05.381Z,8.00
2018-04-06T07:34:33.031Z,8.20
2018-04-06T07:37:07.144Z,8.20
2018-04-06T07:39:34.781Z,8.50
2018-04-06T07:42:02.407Z,8.50
2018-04-06T07:44:30.797Z,8.80
2018-04-06T07:46:58.425Z,8.70
2018-04-06T07:49:28.797Z,8.90
2018-04-06T07:51:59.745Z,8.90
2018-04-06T07:54:27.359Z,9.20
2018-04-06T07:56:55.753Z,9.40
2018-04-06T07:59:25.351Z,9.40
2018-04-06T08:01:53.757Z,9.60
2018-04-06T08:04:21.355Z,9.50
2018-04-06T08:06:48.968Z,9.70
2018-04-06T08:09:16.571Z,9.60
2018-04-06T08:11:44.267Z,9.90
2018-04-06T08:14:12.740Z,10.00
2018-04-06T08:16:41.194Z,9.90
2018-04-06T08:19:08.857Z,9.80
2018-04-06T08:21:36.555Z,9.80
2018-04-06T08:24:12.173Z,10.20
2018-04-06T08:26:39.751Z,10.10
2018-04-06T08:29:08.153Z,10.20
2018-04-06T08:31:36.535Z,10.40
2018-04-06T08:34:04.950Z,10.10
2018-04-06T08:36:32.547Z,10.10
2018-04-06T08:39:00.163Z,10.10
2018-04-06T08:41:27.795Z,10.20
2018-04-06T08:43:56.150Z,9.70
2018-04-06T08:46:23.837Z,9.70
2018-04-06T08:48:51.475Z,9.60
2018-04-06T08:51:19.168Z,9.70
2018-04-06T08:53:46.803Z,9.60
2018-04-06T08:56:14.399Z,9.60
2018-04-06T08:58:42.105Z,9.60
2018-04-06T09:01:10.722Z,10.00
2018-04-06T09:03:38.642Z,10.00
2018-04-06T09:06:06.406Z,10.00
2018-04-06T09:08:34.021Z,10.10
2018-04-06T09:11:02.580Z,10.60
2018-04-06T09:13:30.206Z,10.60
2018-04-06T09:15:57.858Z,10.90
2018-04-06T09:18:25.464Z,10.80
2018-04-06T09:20:59.662Z,10.80
2018-04-06T09:23:27.245Z,10.80
2018-04-06T09:26:00.978Z,10.70
2018-04-06T09:28:29.365Z,10.60
2018-04-06T09:30:56.974Z,10.50
2018-04-06T09:33:24.641Z,10.40
2018-04-06T09:35:52.462Z,10.50
2018-04-06T09:38:20.119Z,10.70
2018-04-06T09:40:47.862Z,10.60
2018-04-06T09:43:17.044Z,10.10
2018-04-06T09:45:57.200Z,10.20
2018-04-06T09:48:29.608Z,10.40
2018-04-06T09:51:02.150Z,10.60
2018-04-06T09:53:35.678Z,10.60
2018-04-06T09:56:11.278Z,10.70
2018-04-06T09:58:43.310Z,11.10
2018-04-06T10:01:12.004Z,11.10
2018-04-06T10:03:39.626Z,10.80
2018-04-06T10:06:31.800Z,10.60
2018-04-06T10:08:59.382Z,10.60
2018-04-06T10:11:32.304Z,10.50
2018-04-06T10:14:06.712Z,10.60
2018-04-06T10:16:34.302Z,10.60
2018-04-06T10:19:01.890Z,10.80
2018-04-06T10:21:33.386Z,10.90
2018-04-06T10:24:01.750Z,10.80
2018-04-06T10:26:29.398Z,10.80
2018-04-06T10:28:57.228Z,11.00
2018-04-06T10:31:24.910Z,11.10
2018-04-06T10:33:52.510Z,11.10
2018-04-06T10:36:20.070Z,11.40
2018-04-06T10:38:51.342Z,11.50
2018-04-06T10:41:20.722Z,11.30
2018-04-06T10:43:51.146Z,11.50
2018-04-06T10:46:18.796Z,11.50
2018-04-06T10:48:46.548Z,11.50
2018-04-06T10:51:14.246Z,11.50
2018-04-06T10:53:43.650Z,11.50
2018-04-06T10:56:12.242Z,11.90
2018-04-06T10:58:39.910Z,11.90
2018-04-06T11:01:07.560Z,11.80
2018-04-06T11:03:35.168Z,12.00
2018-04-06T11:06:02.796Z,12.00
2018-04-06T11:08:30.372Z,12.10
2018-04-06T11:10:58.832Z,12.40
2018-04-06T11:13:26.400Z,12.40
2018-04-06T11:15:54.335Z,12.70
2018-04-06T11:18:21.950Z,12.50
2018-04-06T11:20:50.260Z,12.60
2018-04-06T11:23:18.122Z,12.50
2018-04-06T11:25:45.768Z,12.60
2018-04-06T11:28:16.982Z,12.80
2018-04-06T11:30:45.348Z,12.30
2018-04-06T11:33:12.982Z,12.30
2018-04-06T11:35:40.596Z,12.40
2018-04-06T11:38:09.003Z,12.60
2018-04-06T11:40:36.602Z,12.70
2018-04-06T11:43:04.220Z,12.70
2018-04-06T11:45:31.830Z,12.70
2018-04-06T11:47:59.466Z,12.80
2018-04-06T11:50:27.026Z,12.80
2018-04-06T11:52:54.632Z,12.90
2018-04-06T11:55:23.089Z,12.80
2018-04-06T11:57:50.712Z,12.80
2018-04-06T12:00:18.382Z,12.90
2018-04-06T12:02:46.008Z,13.00
2018-04-06T12:05:13.610Z,13.00
2018-04-06T12:07:41.180Z,12.90
2018-04-06T12:10:08.792Z,12.90
2018-04-06T12:12:36.381Z,13.10
2018-04-06T12:15:03.986Z,13.50
2018-04-06T12:17:31.643Z,13.70
2018-04-06T12:19:59.256Z,13.60
2018-04-06T12:22:26.924Z,13.60
2018-04-06T12:24:54.734Z,13.80
2018-04-06T12:27:22.337Z,13.90
2018-04-06T12:29:49.924Z,14.40
2018-04-06T12:32:17.559Z,15.40
2018-04-06T12:34:45.233Z,16.60
2018-04-06T12:37:13.005Z,17.90
2018-04-06T12:39:40.768Z,18.50
2018-04-06T12:42:08.413Z,19.00
2018-04-06T12:44:36.048Z,18.50
2018-04-06T12:47:03.683Z,18.80
2018-04-06T12:49:50.155Z,19.40
2018-04-06T12:52:17.886Z,20.20
2018-04-06T12:54:46.464Z,21.50
2018-04-06T12:57:14.169Z,21.70
2018-04-06T12:59:41.802Z,22.00
2018-04-06T13:02:15.173Z,22.80
2018-04-06T13:04:43.522Z,24.50
2018-04-06T13:07:11.075Z,24.50
2018-04-06T13:09:39.113Z,25.10
2018-04-06T13:12:06.779Z,25.90
2018-04-06T13:14:34.410Z,25.00
2018-04-06T13:17:02.027Z,22.40
2018-04-06T13:19:31.389Z,21.90
2018-04-06T13:21:59.775Z,21.50
2018-04-06T13:24:27.854Z,21.70
2018-04-06T13:26:57.403Z,22.80
2018-04-06T13:29:25.771Z,22.80
2018-04-06T13:31:53.385Z,22.70
2018-04-06T13:34:21.093Z,21.70
2018-04-06T13:36:48.793Z,21.50
2018-04-06T13:39:17.640Z,19.70
2018-04-06T13:41:45.262Z,19.70
2018-04-06T13:44:12.905Z,19.80
2018-04-06T13:46:41.273Z,21.30
2018-04-06T13:49:08.916Z,21.20
2018-04-06T13:51:36.591Z,21.80
2018-04-06T13:54:04.191Z,20.80
2018-04-06T13:56:31.748Z,20.90
2018-04-06T13:58:59.339Z,20.70
2018-04-06T14:01:26.917Z,19.10
2018-04-06T14:03:54.605Z,18.00
2018-04-06T14:06:22.987Z,17.40
2018-04-06T14:08:51.402Z,17.60
2018-04-06T14:11:19.049Z,17.50
2018-04-06T14:13:46.679Z,17.20
2018-04-06T14:16:14.269Z,17.00
2018-04-06T14:18:41.908Z,17.20
2018-04-06T14:21:10.474Z,17.70
2018-04-06T14:23:38.084Z,17.70
2018-04-06T14:26:05.720Z,17.40
2018-04-06T14:28:34.242Z,17.70
2018-04-06T14:31:01.874Z,17.70
2018-04-06T14:33:29.548Z,17.70
2018-04-06T14:35:57.359Z,17.90
2018-04-06T14:38:24.943Z,17.60
2018-04-06T14:40:53.357Z,17.60
2018-04-06T14:43:20.929Z,17.60
2018-04-06T14:45:48.638Z,18.10
2018-04-06T14:48:16.996Z,18.60
2018-04-06T14:50:44.744Z,18.50
2018-04-06T14:53:12.376Z,18.40
2018-04-06T14:55:40.030Z,18.30
2018-04-06T14:58:07.646Z,18.70
2018-04-06T15:00:35.198Z,18.30
2018-04-06T15:03:02.821Z,18.00
2018-04-06T15:05:30.429Z,18.30
2018-04-06T15:07:58.080Z,18.90
2018-04-06T15:10:25.668Z,18.80
2018-04-06T15:12:54.196Z,18.20
2018-04-06T15:15:21.790Z,18.10
2018-04-06T15:17:49.717Z,18.30
2018-04-06T15:20:17.366Z,18.20
2018-04-06T15:22:44.976Z,18.70
2018-04-06T15:25:12.579Z,18.70
2018-04-06T15:27:40.930Z,17.80
2018-04-06T15:30:08.566Z,17.80
2018-04-06T15:32:36.243Z,18.00
2018-04-06T15:35:03.933Z,18.60
2018-04-06T15:37:44.763Z,18.90
2018-04-06T15:40:12.408Z,18.60
2018-04-06T15:42:40.014Z,18.30
2018-04-06T15:45:07.616Z,18.20
2018-04-06T15:47:39.070Z,18.00
2018-04-06T15:50:06.684Z,18.00
2018-04-06T15:52:39.194Z,17.70
2018-04-06T15:55:06.827Z,17.70
2018-04-06T15:57:34.382Z,17.70
2018-04-06T16:00:03.590Z,17.30
2018-04-06T16:02:31.219Z,17.30
2018-04-06T16:04:58.866Z,17.10
2018-04-06T16:07:41.546Z,17.20
2018-04-06T16:10:09.213Z,17.30
2018-04-06T16:12:36.834Z,16.90
2018-04-06T16:15:04.435Z,16.90
2018-04-06T16:17:33.982Z,17.10
2018-04-06T16:20:04.909Z,17.30
2018-04-06T16:25:30.788Z,17.10
2018-04-06T16:27:59.171Z,17.10
2018-04-06T16:30:26.771Z,17.10
2018-04-06T16:32:55.428Z,17.00
2018-04-06T16:35:23.814Z,16.60
2018-04-06T16:37:55.161Z,16.60
2018-04-06T16:40:23.584Z,16.40
2018-04-06T16:42:51.270Z,16.30
2018-04-06T16:45:23.532Z,15.90
2018-04-06T16:47:51.210Z,15.90
2018-04-06T16:50:24.224Z,15.70
2018-04-06T16:52:53.446Z,15.60
2018-04-06T16:55:25.554Z,15.80
2018-04-06T16:57:54.118Z,15.80
2018-04-06T17:00:21.720Z,15.60
2018-04-06T17:02:50.148Z,15.40
2018-04-06T17:05:23.142Z,15.40
2018-04-06T17:07:50.760Z,15.30
2018-04-06T17:10:18.356Z,15.20
2018-04-06T17:12:46.006Z,15.20
2018-04-06T17:15:13.629Z,15.00
2018-04-06T17:17:42.108Z,14.80
2018-04-06T17:20:09.734Z,14.80
2018-04-06T17:22:37.378Z,14.70
2018-04-06T17:25:04.967Z,14.60
2018-04-06T17:27:32.540Z,14.40
2018-04-06T17:30:00.912Z,14.20
2018-04-06T17:32:28.582Z,14.20
2018-04-06T17:34:57.256Z,14.10
2018-04-06T17:37:26.021Z,13.80
2018-04-06T17:39:53.687Z,13.80
2018-04-06T17:42:21.293Z,13.60
2018-04-06T17:44:49.684Z,13.40
2018-04-06T17:47:17.291Z,13.40
2018-04-06T17:49:44.880Z,13.20
2018-04-06T17:52:12.458Z,13.10
2018-04-06T17:54:41.743Z,12.90
2018-04-06T17:57:10.105Z,12.80
2018-04-06T17:59:38.511Z,12.70
2018-04-06T18:02:06.831Z,12.70
2018-04-06T18:04:34.471Z,12.60
2018-04-06T18:07:02.159Z,12.60
2018-04-06T18:09:29.777Z,12.60
2018-04-06T18:11:58.162Z,12.40
2018-04-06T18:14:26.548Z,12.40
2018-04-06T18:16:54.953Z,12.40
2018-04-06T18:19:22.619Z,12.40
2018-04-06T18:21:50.299Z,12.40
2018-04-06T18:24:17.899Z,12.30
2018-04-06T18:26:46.263Z,12.20
2018-04-06T18:29:14.733Z,12.20
2018-04-06T18:31:42.357Z,12.20
2018-04-06T18:34:09.955Z,12.20
2018-04-06T18:36:37.571Z,12.20
2018-04-06T18:39:05.349Z,12.10
2018-04-06T18:41:32.986Z,12.10
2018-04-06T18:44:00.601Z,12.00
2018-04-06T18:46:29.039Z,11.90
2018-04-06T18:48:56.920Z,11.90
2018-04-06T18:51:28.366Z,11.90
2018-04-06T18:53:56.021Z,11.80
2018-04-06T18:56:23.623Z,11.70
2018-04-06T18:58:51.223Z,11.70
2018-04-06T19:01:18.839Z,11.70
2018-04-06T19:03:46.451Z,11.60
2018-04-06T19:06:14.047Z,11.50
2018-04-06T19:08:41.647Z,11.50
2018-04-06T19:11:10.052Z,11.30
2018-04-06T19:13:37.673Z,11.30
2018-04-06T19:16:05.308Z,11.20
2018-04-06T19:18:32.935Z,11.20
2018-04-06T19:21:00.581Z,11.10
2018-04-06T19:23:28.181Z,11.10
2018-04-06T19:25:55.770Z,11.00
2018-04-06T19:28:23.386Z,11.00
2018-04-06T19:30:51.005Z,10.90
2018-04-06T19:33:18.575Z,10.90
2018-04-06T19:35:46.925Z,10.80
2018-04-06T19:38:14.543Z,10.80
2018-04-06T19:40:42.130Z,10.80
2018-04-06T19:43:16.568Z,10.70
2018-04-06T19:45:44.179Z,10.60
2018-04-06T19:48:11.756Z,10.60
2018-04-06T19:50:39.395Z,10.60
2018-04-06T19:53:07.003Z,10.60
2018-04-06T19:55:34.645Z,10.50
2018-04-06T19:58:02.313Z,10.50
2018-04-06T20:00:30.047Z,10.40
2018-04-06T20:02:57.688Z,10.40
2018-04-06T20:05:29.116Z,10.30
2018-04-06T20:07:56.724Z,10.30
2018-04-06T20:10:30.483Z,10.20
2018-04-06T20:12:58.219Z,10.20
2018-04-06T20:15:25.843Z,10.10
2018-04-06T20:17:53.445Z,10.10
2018-04-06T20:20:21.062Z,10.00
2018-04-06T20:22:48.612Z,10.00
2018-04-06T20:25:18.156Z,9.90
2018-04-06T20:27:46.022Z,9.90
2018-04-06T20:30:13.675Z,9.90
2018-04-06T20:32:42.018Z,9.80
2018-04-06T20:35:10.440Z,9.70
2018-04-06T20:37:38.070Z,9.70
2018-04-06T20:40:06.497Z,9.70
2018-04-06T20:42:34.074Z,9.60
2018-04-06T20:45:04.813Z,9.60
2018-04-06T20:47:32.400Z,9.60
2018-04-06T20:50:00.750Z,9.50
2018-04-06T20:52:28.359Z,9.40
2018-04-06T20:54:56.006Z,9.40
2018-04-06T20:57:23.607Z,9.40
2018-04-06T20:59:51.224Z,9.30
2018-04-06T21:02:19.579Z,9.20
2018-04-06T21:04:47.208Z,9.20
2018-04-06T21:07:14.840Z,9.20
2018-04-06T21:09:42.406Z,9.20
2018-04-06T21:12:11.146Z,9.10
2018-04-06T21:14:40.280Z,9.00
2018-04-06T21:17:07.908Z,9.00
2018-04-06T21:19:35.556Z,9.00
2018-04-06T21:22:03.190Z,9.00
2018-04-06T21:24:30.804Z,8.90
2018-04-06T21:26:59.186Z,8.80
2018-04-06T21:29:27.556Z,8.80
2018-04-06T21:32:06.555Z,8.80
2018-04-06T21:34:34.124Z,8.80
2018-04-06T21:37:01.764Z,8.70
2018-04-06T21:39:47.450Z,8.70
2018-04-06T21:42:15.033Z,8.70
2018-04-06T21:44:42.626Z,8.60
2018-04-06T21:47:10.209Z,8.60
2018-04-06T21:49:37.816Z,8.60
2018-04-06T21:52:06.241Z,8.50
2018-04-06T21:54:33.858Z,8.50
2018-04-06T21:57:03.009Z,8.40
2018-04-06T21:59:30.654Z,8.40
2018-04-06T22:01:58.260Z,8.30
2018-04-06T22:04:25.880Z,8.30
2018-04-06T22:06:53.496Z,8.30
2018-04-06T22:09:21.322Z,8.30
2018-04-06T22:11:48.930Z,8.20
2018-04-06T22:14:16.574Z,8.20
2018-04-06T22:16:44.182Z,8.20
2018-04-06T22:19:11.778Z,8.10
2018-04-06T22:21:39.350Z,8.10
2018-04-06T22:24:07.412Z,8.10
2018-04-06T22:26:35.022Z,8.00
2018-04-06T22:29:03.410Z,7.90
2018-04-06T22:31:31.012Z,7.90
2018-04-06T22:33:58.602Z,7.90
2018-04-06T22:36:26.208Z,7.90
2018-04-06T22:38:53.809Z,7.80
2018-04-06T22:41:21.409Z,7.80
2018-04-06T22:44:13.983Z,7.80
2018-04-06T22:46:41.636Z,7.80
2018-04-06T22:49:09.189Z,7.70
2018-04-06T22:51:36.816Z,7.70
2018-04-06T22:54:04.406Z,7.70
2018-04-06T22:56:31.992Z,7.70
2018-04-06T22:58:59.594Z,7.70
2018-04-06T23:01:27.322Z,7.70
2018-04-06T23:03:54.953Z,7.70
2018-04-06T23:06:22.586Z,7.60
2018-04-06T23:08:50.148Z,7.60
2018-04-06T23:11:18.538Z,7.50
2018-04-06T23:13:46.115Z,7.50
2018-04-06T23:16:13.735Z,7.50
2018-04-06T23:18:41.343Z,7.50
2018-04-06T23:21:08.943Z,7.40
2018-04-06T23:23:36.512Z,7.40
2018-04-06T23:26:04.096Z,7.40
2018-04-06T23:28:32.472Z,7.30
2018-04-06T23:31:00.802Z,7.30
2018-04-06T23:33:28.392Z,7.30
2018-04-06T23:35:56.010Z,7.30
2018-04-06T23:38:23.640Z,7.30
2018-04-06T23:40:52.037Z,7.20
2018-04-06T23:43:19.657Z,7.20
2018-04-06T23:45:47.222Z,7.20
2018-04-06T23:48:14.843Z,7.20
2018-04-06T23:50:42.449Z,7.20
2018-04-06T23:53:10.847Z,7.10
2018-04-06T23:55:38.430Z,7.10
2018-04-06T23:58:06.023Z,7.10
